^^
Soleil Laural Canyon Historical Data
 
Daily Summary for August 21, 2019 Units:  English    Metric   Both
Daily Weekly Monthly Yearly Custom
  Current: High: Low: Average:
Temperature: 81.1 °F 81.1 °F 69.6 °F 73 °F
Dew Point: 72.5 °F 72.5 °F 68 °F 69.8 °F
Humidity: 75% 96% 75% 90%
Wind Speed: 0.7mph 4.3mph 0mph 0.3mph
Wind Gust: 1.1mph 4.5mph - -
WindSW - - South
Pressure: 30.19 in 30.19 in 30.13 in -
Precipitation: 0 in      
Historical Graphs
 
 
Tabular Data for August 21, 2019
Time Temperature Dew Point Pressure Wind Wind Speed Wind Gust Humidity Rainfall Rate (Hourly) solar
00:00 75.9 °F 70.5 °F 30.18 in Calm     83% 0 in 0.00 W/m2
00:05 76.1 °F 70.7 °F 30.17 in Calm     83% 0 in 0.00 W/m2
00:10 75.9 °F 70.5 °F 30.17 in Calm     83% 0 in 0.00 W/m2
00:15 75.9 °F 70.5 °F 30.18 in North 0.2 mph 1.1 mph 83% 0 in 0.00 W/m2
00:20 75.9 °F 70.5 °F 30.18 in Calm     83% 0 in 0.00 W/m2
00:25 75.9 °F 70 °F 30.18 in North 0.9 mph 1.1 mph 82% 0 in 0.00 W/m2
00:30 75.9 °F 70.7 °F 30.18 in Calm     84% 0 in 0.00 W/m2
00:35 75.4 °F 70.5 °F 30.18 in Calm     85% 0 in 0.00 W/m2
00:40 75.4 °F 70.5 °F 30.18 in Calm     85% 0 in 0.00 W/m2
00:45 75.2 °F 70.3 °F 30.18 in Calm     85% 0 in 0.00 W/m2
00:50 75 °F 70.2 °F 30.17 in Calm     85% 0 in 0.00 W/m2
00:55 75 °F 70.2 °F 30.17 in Calm     85% 0 in 0.00 W/m2
01:00 74.8 °F 70.3 °F 30.17 in NW 0.7 mph 1.1 mph 86% 0 in 0.00 W/m2
01:05 74.7 °F 70.5 °F 30.17 in Calm     87% 0 in 0.00 W/m2
01:10 74.3 °F 70.2 °F 30.17 in Calm     87% 0 in 0.00 W/m2
01:15 74.1 °F 70 °F 30.16 in Calm     87% 0 in 0.00 W/m2
01:20 74.1 °F 70 °F 30.16 in Calm     87% 0 in 0.00 W/m2
01:25 74.1 °F 70 °F 30.16 in Calm     87% 0 in 0.00 W/m2
01:30 73.9 °F 70.2 °F 30.16 in Calm     88% 0 in 0.00 W/m2
01:35 73.8 °F 70.3 °F 30.15 in Calm     89% 0 in 0.00 W/m2
01:40 73.8 °F 70.3 °F 30.15 in Calm     89% 0 in 0.00 W/m2
01:45 73.8 °F 70.3 °F 30.16 in Calm     89% 0 in 0.00 W/m2
01:50 73.8 °F 70.3 °F 30.16 in Calm     89% 0 in 0.00 W/m2
01:55 73.4 °F 70.3 °F 30.15 in Calm     90% 0 in 0.00 W/m2
02:00 73.4 °F 70 °F 30.15 in Calm     89% 0 in 0.00 W/m2
02:05 73.4 °F 70 °F 30.15 in Calm     89% 0 in 0.00 W/m2
02:10 73.2 °F 69.8 °F 30.15 in Calm     89% 0 in 0.00 W/m2
02:15 73.2 °F 69.8 °F 30.15 in Calm     89% 0 in 0.00 W/m2
02:20 72.9 °F 69.8 °F 30.14 in Calm     90% 0 in 0.00 W/m2
02:25 72.9 °F 69.8 °F 30.15 in Calm     90% 0 in 0.00 W/m2
02:30 72.9 °F 70.2 °F 30.14 in Calm     91% 0 in 0.00 W/m2
02:35 72.7 °F 70 °F 30.14 in Calm     91% 0 in 0.00 W/m2
02:40 72.3 °F 69.6 °F 30.14 in NE 0.2 mph 1.1 mph 91% 0 in 0.00 W/m2
02:45 72.3 °F 69.6 °F 30.14 in NE 0.2 mph 1.1 mph 91% 0 in 0.00 W/m2
02:50 72.1 °F 69.4 °F 30.13 in Calm     91% 0 in 0.00 W/m2
02:55 72 °F 69.3 °F 30.13 in Calm     91% 0 in 0.00 W/m2
03:00 71.8 °F 69.4 °F 30.14 in Calm     92% 0 in 0.00 W/m2
03:05 71.8 °F 69.4 °F 30.14 in NE 0.2 mph 1.1 mph 92% 0 in 0.00 W/m2
03:10 71.8 °F 69.4 °F 30.14 in NE 0.9 mph 1.1 mph 92% 0 in 0.00 W/m2
03:15 71.8 °F 69.6 °F 30.14 in NW 0.4 mph 1.1 mph 93% 0 in 0.00 W/m2
03:20 71.8 °F 69.6 °F 30.14 in Calm     93% 0 in 0.00 W/m2
03:25 71.8 °F 69.6 °F 30.14 in Calm     93% 0 in 0.00 W/m2
03:30 71.6 °F 69.4 °F 30.14 in Calm     93% 0 in 0.00 W/m2
03:35 71.8 °F 69.6 °F 30.13 in NNW 0.9 mph 1.1 mph 93% 0 in 0.00 W/m2
03:40 71.6 °F 69.4 °F 30.14 in NNW 0.4 mph 1.1 mph 93% 0 in 0.00 W/m2
03:45 71.4 °F 69.4 °F 30.14 in Calm     94% 0 in 0.00 W/m2
03:50 71.4 °F 69.4 °F 30.14 in Calm     94% 0 in 0.00 W/m2
03:55 71.4 °F 69.4 °F 30.13 in Calm     94% 0 in 0.00 W/m2
04:00 71.2 °F 69.3 °F 30.14 in Calm     94% 0 in 0.00 W/m2
04:05 71.4 °F 69.4 °F 30.14 in NNW 0.2 mph 1.1 mph 94% 0 in 0.00 W/m2
04:10 71.1 °F 69.1 °F 30.13 in Calm     94% 0 in 0.00 W/m2
04:15 71.1 °F 69.1 °F 30.13 in Calm     94% 0 in 0.00 W/m2
04:20 71.2 °F 69.3 °F 30.13 in NNW 0.2 mph 1.1 mph 94% 0 in 0.00 W/m2
04:25 71.1 °F 69.1 °F 30.13 in Calm     94% 0 in 0.00 W/m2
04:30 70.9 °F 68.9 °F 30.13 in Calm     94% 0 in 0.00 W/m2
04:35 70.9 °F 68.9 °F 30.13 in Calm     94% 0 in 0.00 W/m2
04:40 70.9 °F 68.9 °F 30.13 in Calm     94% 0 in 0.00 W/m2
04:45 70.9 °F 68.9 °F 30.13 in Calm     94% 0 in 0.00 W/m2
04:50 71.1 °F 69.1 °F 30.13 in Calm     94% 0 in 0.00 W/m2
04:55 71.1 °F 69.1 °F 30.13 in Calm     94% 0 in 0.00 W/m2
05:00 71.4 °F 69.4 °F 30.13 in Calm     94% 0 in 0.00 W/m2
05:05 71.2 °F 69.3 °F 30.14 in Calm     94% 0 in 0.00 W/m2
05:10 71.2 °F 69.3 °F 30.13 in Calm     94% 0 in 0.00 W/m2
05:15 71.2 °F 69.3 °F 30.13 in Calm     94% 0 in 0.00 W/m2
05:20 71.1 °F 69.1 °F 30.13 in Calm     94% 0 in 0.00 W/m2
05:25 71.1 °F 69.1 °F 30.13 in Calm     94% 0 in 0.00 W/m2
05:30 71.1 °F 69.1 °F 30.14 in Calm     94% 0 in 0.00 W/m2
05:35 71.1 °F 69.1 °F 30.14 in Calm     94% 0 in 0.00 W/m2
05:40 70.9 °F 68.9 °F 30.14 in Calm     94% 0 in 0.00 W/m2
05:45 70.9 °F 68.9 °F 30.14 in Calm     94% 0 in 0.00 W/m2
05:50 70.7 °F 68.7 °F 30.13 in Calm     94% 0 in 0.00 W/m2
05:55 70.7 °F 68.7 °F 30.14 in Calm     94% 0 in 0.00 W/m2
06:00 70.5 °F 68.5 °F 30.14 in Calm     94% 0 in 0.00 W/m2
06:05 70.5 °F 68.9 °F 30.14 in Calm     95% 0 in 0.00 W/m2
06:10 70.5 °F 68.9 °F 30.14 in NNW 0.2 mph 1.1 mph 95% 0 in 0.00 W/m2
06:15 70.3 °F 68.7 °F 30.14 in Calm     95% 0 in 0.00 W/m2
06:20 70.3 °F 68.7 °F 30.14 in Calm     95% 0 in 0.00 W/m2
06:25 70.3 °F 68.7 °F 30.14 in NNW 0.7 mph 1.1 mph 95% 0 in 0.00 W/m2
06:30 70.3 °F 68.7 °F 30.15 in Calm     95% 0 in 0.00 W/m2
06:35 70.2 °F 68.5 °F 30.15 in Calm     95% 0 in 0.00 W/m2
06:40 70.2 °F 68.5 °F 30.15 in Calm     95% 0 in 0.00 W/m2
06:45 70.2 °F 68.5 °F 30.15 in Calm     95% 0 in 0.00 W/m2
06:50 70 °F 68.4 °F 30.16 in Calm     95% 0 in 0.00 W/m2
06:55 69.8 °F 68.2 °F 30.16 in Calm     95% 0 in 0.00 W/m2
07:00 69.8 °F 68.2 °F 30.16 in Calm     95% 0 in 0.00 W/m2
07:05 69.8 °F 68.2 °F 30.16 in Calm     95% 0 in 0.85 W/m2
07:10 69.8 °F 68.2 °F 30.16 in Calm     95% 0 in 2.57 W/m2
07:15 69.6 °F 68 °F 30.17 in Calm     95% 0 in 5.14 W/m2
07:20 69.6 °F 68.5 °F 30.16 in Calm     96% 0 in 6.85 W/m2
07:25 69.6 °F 68.5 °F 30.16 in Calm     96% 0 in 11.25 W/m2
07:30 69.8 °F 68.7 °F 30.16 in Calm     96% 0 in 15.17 W/m2
07:35 69.8 °F 68.7 °F 30.16 in Calm     96% 0 in 18.60 W/m2
07:40 70.2 °F 69.1 °F 30.16 in NNE 0.4 mph 1.1 mph 96% 0 in 22.51 W/m2
07:45 70.3 °F 68.7 °F 30.17 in Calm     95% 0 in 26.42 W/m2
07:50 70.9 °F 68.9 °F 30.16 in Calm     94% 0 in 35.48 W/m2
07:55 70.9 °F 68.9 °F 30.17 in Calm     94% 0 in 33.39 W/m2
08:00 71.2 °F 69.1 °F 30.17 in Calm     93% 0 in 53.70 W/m2
08:05 72 °F 69.6 °F 30.17 in NNE 0.2 mph 1.1 mph 92% 0 in 43.31 W/m2
08:10 72 °F 69.6 °F 30.18 in NW 1.1 mph 1.1 mph 92% 0 in 62.88 W/m2
08:15 72.5 °F 69.8 °F 30.17 in WNW 1.1 mph 1.1 mph 91% 0 in 54.19 W/m2
08:20 72.9 °F 69.8 °F 30.18 in NW 0.4 mph 1.1 mph 90% 0 in 80.62 W/m2
08:25 73.6 °F 70.2 °F 30.18 in NNW 0.7 mph 1.1 mph 89% 0 in 82.33 W/m2
08:30 74.7 °F 70.2 °F 30.18 in East 1.3 mph 2.2 mph 86% 0 in 110.96 W/m2
08:35 74.5 °F 70.3 °F 30.18 in Calm     87% 0 in 104.96 W/m2
08:40 74.7 °F 70.5 °F 30.18 in East 0.2 mph 1.1 mph 87% 0 in 157.44 W/m2
08:45 75.7 °F 70.9 °F 30.18 in Calm     85% 0 in 202.10 W/m2
08:50 76.1 °F 71.2 °F 30.18 in Calm     85% 0 in 225.10 W/m2
08:55 75.9 °F 71.1 °F 30.18 in Calm     85% 0 in 242.83 W/m2
09:00 76.6 °F 71.4 °F 30.18 in Calm     84% 0 in 264.98 W/m2
09:05 76.5 °F 71.2 °F 30.18 in NNW 0.4 mph 1.1 mph 84% 0 in 274.15 W/m2
09:10 76.1 °F 70.9 °F 30.17 in East 2.7 mph 3.4 mph 84% 0 in 310.12 W/m2
09:15 76.8 °F 71.2 °F 30.18 in ESE 0.2 mph 1.1 mph 83% 0 in 256.78 W/m2
09:20 75.6 °F 70.7 °F 30.18 in SE 1.8 mph 3.4 mph 85% 0 in 166.50 W/m2
09:25 75 °F 70.9 °F 30.18 in East 2.9 mph 3.4 mph 87% 0 in 196.47 W/m2
09:30 75.4 °F 70.9 °F 30.18 in ENE 0.9 mph 1.1 mph 86% 0 in 307.06 W/m2
09:35 75.7 °F 70.9 °F 30.17 in East 1.8 mph 2.2 mph 85% 0 in 383.03 W/m2
09:40 76.3 °F 71.1 °F 30.17 in ESE 1.8 mph 2.2 mph 84% 0 in 256.29 W/m2
09:45 77.7 °F 71.4 °F 30.17 in SW 0.2 mph 1.1 mph 81% 0 in 344.37 W/m2
09:50 77.2 °F 71.6 °F 30.17 in East 2 mph 3.4 mph 83% 0 in 411.66 W/m2
09:55 78.3 °F 71.6 °F 30.17 in East 3.4 mph 4.5 mph 80% 0 in 436.74 W/m2
10:00 78.3 °F 71.2 °F 30.18 in ENE 1.8 mph 2.2 mph 79% 0 in 465.00 W/m2
10:05 78.3 °F 71.2 °F 30.18 in NNW 1.3 mph 2.2 mph 79% 0 in 496.20 W/m2
10:10 78.8 °F 71.8 °F 30.19 in East 2.2 mph 2.2 mph 79% 0 in 512.22 W/m2
10:15 79.5 °F 71.6 °F 30.19 in East 4.3 mph 4.5 mph 77% 0 in 540.84 W/m2
10:20 80.2 °F 72 °F 30.19 in ENE 3.4 mph 4.5 mph 76% 0 in 569.11 W/m2
10:25 81.1 °F 72.5 °F 30.19 in SW 0.7 mph 1.1 mph 75% 0 in 581.22 W/m2
Soleil Laural Canyon
Compliments of Weather Underground - 2 mb